Terminal Aerodrome Forecast
Issued by NWS Upton, NY

Home | Current Version | Previous Version | Text Only | Print | Product List | Glossary On
Versions: 1 2 3 4 5 6 7 8 9 10 11 12 13 14 15 16 17 18 19 20 21 22 23 24 25 26 27 28 29 30 31 32
000
FTUS41 KOKX 300243 AAA
TAFBDR
TAF AMD
KBDR 300243Z 3003/3024 VRB05KT P6SM BKN250
     FM300700 VRB04KT 6SM BR SCT010 SCT250
     FM300800 VRB03KT 3SM BR SCT005 BKN010
     FM301300 21008KT P6SM SCT015
     FM301700 21012KT P6SM FEW030=

USA.gov is the U.S. government's official web portal to all federal, state and local government web resources and services.